Time;durP1;ratioP1;P1;durP2;ratioP2;P2;SDS_P1;SDS_P2;PMS_P1;PMS_P2;Temp;Humidity;BMP_temperature;BMP_pressure;BME280_temperature;BME280_humidity;BME280_pressure;Samples;Min_cycle;Max_cycle;Signal;HPM_P1;HPM_P2
2022/01/12 00:00:48;;;;;;;24.20;12.27;;;-1.50;97.20;;;;;;5019587;28;20099;-78
2022/01/12 00:03:14;;;;;;;26.23;12.05;;;-1.50;96.30;;;;;;5004586;28;20133;-77
2022/01/12 00:05:40;;;;;;;31.30;12.82;;;-1.50;96.30;;;;;;5000936;28;20603;-77
2022/01/12 00:08:08;;;;;;;32.88;17.23;;;-1.50;96.40;;;;;;5000730;28;20025;-78
2022/01/12 00:10:34;;;;;;;58.95;25.77;;;-1.50;96.70;;;;;;5017269;28;20052;-78
2022/01/12 00:13:00;;;;;;;57.58;26.08;;;-1.50;97.00;;;;;;5017359;28;20104;-78
2022/01/12 00:15:25;;;;;;;54.38;23.13;;;-1.50;97.00;;;;;;5017519;28;20030;-77
2022/01/12 00:17:51;;;;;;;53.38;24.90;;;-1.50;96.80;;;;;;5017430;28;20021;-78
2022/01/12 00:20:26;;;;;;;53.88;25.73;;;-1.40;97.00;;;;;;5000507;28;20504;-78
2022/01/12 00:22:55;;;;;;;52.85;23.00;;;-1.50;96.90;;;;;;5016903;28;20113;-77
2022/01/12 00:33:54;;;;;;;33.33;15.90;;;-1.60;96.40;;;;;;5000173;28;20403;-76
2022/01/12 00:36:20;;;;;;;34.67;16.80;;;-1.50;96.20;;;;;;4998321;28;20511;-78
2022/01/12 00:38:47;;;;;;;32.88;15.43;;;-1.60;96.40;;;;;;4999844;28;20326;-77
2022/01/12 00:41:16;;;;;;;32.38;14.15;;;-1.60;96.40;;;;;;4998454;28;20500;-78
2022/01/12 00:43:44;;;;;;;28.73;13.48;;;-1.60;96.40;;;;;;5000050;28;20026;-78
2022/01/12 00:46:15;;;;;;;27.30;12.38;;;-1.50;96.20;;;;;;4999807;28;20365;-77
2022/01/12 00:48:41;;;;;;;22.38;11.02;;;-1.60;96.40;;;;;;4999866;28;20242;-77
2022/01/12 00:51:08;;;;;;;24.70;11.57;;;-1.60;96.10;;;;;;4999848;28;20084;-78
2022/01/12 00:53:34;;;;;;;189.73;59.63;;;-1.70;96.50;;;;;;4999831;28;20311;-78
2022/01/12 00:55:59;;;;;;;66.07;23.60;;;-1.70;96.70;;;;;;4999461;28;20052;-78
2022/01/12 00:58:25;;;;;;;58.30;21.38;;;-1.60;96.90;;;;;;4999718;28;20097;-77
2022/01/12 01:00:51;;;;;;;130.88;41.20;;;-1.60;97.00;;;;;;4998783;28;20556;-78
2022/01/12 01:03:19;;;;;;;126.07;42.00;;;-1.60;96.90;;;;;;5031298;28;20048;-78
2022/01/12 01:05:45;;;;;;;68.32;25.52;;;-1.60;96.90;;;;;;5039453;28;20491;-78
2022/01/12 01:08:11;;;;;;;55.85;22.00;;;-1.60;96.90;;;;;;5039476;28;20103;-78
2022/01/12 01:13:05;;;;;;;27.02;12.77;;;-1.50;97.00;;;;;;5039413;28;20059;-78
2022/01/12 01:26:47;;;;;;;23.75;11.10;;;-1.70;97.70;;;;;;5019509;28;20475;-77
2022/01/12 01:29:14;;;;;;;20.98;10.48;;;-2.00;97.50;;;;;;5018872;28;20041;-78
2022/01/12 01:31:41;;;;;;;22.88;11.38;;;-1.70;97.90;;;;;;5019416;28;20022;-78
2022/01/12 01:34:12;;;;;;;26.70;11.70;;;-1.70;98.20;;;;;;5017577;28;20032;-78
2022/01/12 01:36:41;;;;;;;27.42;12.25;;;-1.30;98.20;;;;;;5017867;28;20104;-78
2022/01/12 01:39:09;;;;;;;23.92;10.98;;;-1.70;98.10;;;;;;5016388;28;20091;-77
2022/01/12 01:41:38;;;;;;;22.88;10.93;;;-2.10;97.80;;;;;;5015042;28;20424;-77
2022/01/12 01:54:49;;;;;;;21.47;10.63;;;-1.70;97.90;;;;;;5025785;28;20044;-78
2022/01/12 01:57:15;;;;;;;25.45;10.90;;;-1.80;97.90;;;;;;5038105;28;20268;-78
2022/01/12 01:59:41;;;;;;;63.78;25.60;;;-1.80;98.20;;;;;;5037862;28;20028;-78
2022/01/12 02:02:07;;;;;;;29.02;12.70;;;-1.70;98.30;;;;;;5038196;28;20049;-78
2022/01/12 02:04:33;;;;;;;24.83;11.95;;;-1.80;98.40;;;;;;5036712;28;20045;-78
2022/01/12 02:06:58;;;;;;;21.40;10.38;;;-1.60;98.50;;;;;;5038165;28;20100;-78
2022/01/12 02:09:25;;;;;;;25.67;11.77;;;-1.70;98.50;;;;;;5038279;28;20104;-78
2022/01/12 02:11:55;;;;;;;22.10;10.18;;;-1.70;98.40;;;;;;5037708;28;20134;-78
2022/01/12 02:14:21;;;;;;;23.85;10.80;;;-1.80;98.60;;;;;;5036768;28;20029;-78
2022/01/12 02:16:55;;;;;;;21.55;10.65;;;-1.00;98.80;;;;;;5036066;28;20413;-78
2022/01/12 02:36:20;;;;;;;24.70;11.93;;;-1.60;98.10;;;;;;5074850;28;20039;-78
2022/01/12 02:41:30;;;;;;;27.58;12.73;;;-1.50;97.80;;;;;;5075139;28;20217;-76
2022/01/12 02:55:11;;;;;;;28.00;13.63;;;-1.50;98.10;;;;;;4959522;28;20031;-78
2022/01/12 02:57:37;;;;;;;30.80;14.10;;;-1.50;98.20;;;;;;4959123;28;20074;-79
2022/01/12 03:00:11;;;;;;;30.20;13.80;;;-1.00;98.50;;;;;;4940464;29;20039;-77
2022/01/12 03:02:52;;;;;;;31.85;14.20;;;-1.50;98.20;;;;;;4938631;29;20048;-78
2022/01/12 03:07:44;;;;;;;26.63;12.57;;;-1.50;98.30;;;;;;4940572;29;20172;-77
2022/01/12 03:10:12;;;;;;;32.80;15.13;;;-1.50;97.80;;;;;;4940117;29;20118;-78
2022/01/12 03:12:43;;;;;;;39.40;19.05;;;-1.50;97.80;;;;;;4940241;29;20038;-77
2022/01/12 03:15:09;;;;;;;28.58;13.40;;;-1.40;97.80;;;;;;4940375;29;20031;-78
2022/01/12 03:17:35;;;;;;;21.00;11.60;;;-1.50;97.60;;;;;;4940443;29;20090;-77
2022/01/12 03:20:03;;;;;;;25.60;11.73;;;-1.50;97.70;;;;;;4940403;29;20059;-79
2022/01/12 03:22:29;;;;;;;23.35;10.90;;;-1.50;97.60;;;;;;4939973;29;20035;-78
2022/01/12 03:24:54;;;;;;;21.52;10.90;;;-1.40;97.60;;;;;;4940229;29;20703;-78
2022/01/12 03:27:22;;;;;;;21.83;10.48;;;-0.50;98.00;;;;;;4939999;29;20027;-78
2022/01/12 03:29:51;;;;;;;22.65;11.32;;;-1.60;97.80;;;;;;4940075;29;20091;-78
2022/01/12 03:32:21;;;;;;;33.08;13.52;;;-1.60;98.20;;;;;;4992178;28;20246;-78
2022/01/12 03:34:54;;;;;;;27.60;12.90;;;-0.80;98.90;;;;;;5040895;28;20055;-78
2022/01/12 03:37:41;;;;;;;25.40;12.45;;;-1.10;99.00;;;;;;5040825;28;20021;-78
2022/01/12 03:40:09;;;;;;;29.65;13.07;;;-1.00;98.90;;;;;;5040465;28;20036;-78
2022/01/12 03:42:35;;;;;;;28.92;12.68;;;-1.70;99.00;;;;;;5040610;28;20049;-77
2022/01/12 03:45:01;;;;;;;27.50;13.25;;;-1.70;99.10;;;;;;5040561;28;20091;-77
2022/01/12 03:47:27;;;;;;;28.40;12.73;;;-1.70;99.10;;;;;;5040884;28;20381;-77
2022/01/12 03:49:53;;;;;;;25.40;13.07;;;-1.70;99.10;;;;;;5040710;28;20094;-78
2022/01/12 03:52:19;;;;;;;29.35;14.65;;;-1.70;99.40;;;;;;5039163;28;20519;-78
2022/01/12 03:54:44;;;;;;;29.70;13.20;;;-1.70;99.20;;;;;;5040511;28;20025;-78
2022/01/12 03:57:10;;;;;;;32.47;14.23;;;-1.70;99.40;;;;;;5038852;28;20447;-78
2022/01/12 03:59:36;;;;;;;30.48;13.80;;;-1.70;99.40;;;;;;5039082;28;20017;-78
2022/01/12 04:02:05;;;;;;;30.33;13.50;;;-1.80;99.30;;;;;;5040633;28;20125;-78
2022/01/12 04:04:37;;;;;;;27.98;12.82;;;-1.80;99.50;;;;;;5039518;28;20087;-77
2022/01/12 04:09:47;;;;;;;31.30;14.38;;;-1.80;99.20;;;;;;5043377;28;20044;-78
2022/01/12 04:12:14;;;;;;;24.70;12.20;;;-1.80;99.10;;;;;;5041607;28;20029;-78
2022/01/12 04:14:39;;;;;;;31.85;13.35;;;-1.80;98.90;;;;;;5044186;28;20207;-78
2022/01/12 04:17:05;;;;;;;30.40;14.15;;;-1.80;99.10;;;;;;5042790;28;20233;-78
2022/01/12 04:19:31;;;;;;;34.55;13.63;;;-1.80;99.30;;;;;;5040698;28;20475;-77
2022/01/12 04:22:06;;;;;;;28.98;13.63;;;-1.80;99.40;;;;;;5040691;28;20022;-78
2022/01/12 04:24:33;;;;;;;27.20;12.70;;;-1.80;99.40;;;;;;5038554;28;20033;-77
2022/01/12 04:26:59;;;;;;;32.85;12.65;;;-1.60;99.50;;;;;;5038403;28;20029;-77
2022/01/12 04:29:25;;;;;;;29.40;13.82;;;-1.80;99.20;;;;;;5038807;28;20280;-78
2022/01/12 04:31:50;;;;;;;29.92;12.88;;;-1.80;99.30;;;;;;5038507;28;20053;-78
2022/01/12 04:34:16;;;;;;;25.73;12.48;;;-1.80;99.60;;;;;;5039746;28;20648;-77
2022/01/12 04:36:42;;;;;;;28.00;12.20;;;-1.80;99.20;;;;;;5038297;28;20052;-78
2022/01/12 04:39:07;;;;;;;25.15;11.10;;;-1.80;99.30;;;;;;5038420;28;20059;-78
2022/01/12 04:41:34;;;;;;;27.40;11.90;;;-1.50;99.50;;;;;;5040058;28;20025;-78
2022/01/12 04:44:02;;;;;;;23.33;11.23;;;-1.80;99.30;;;;;;5037999;28;20287;-78
2022/01/12 04:46:49;;;;;;;23.70;11.15;;;-1.80;99.20;;;;;;5039335;28;20020;-78
2022/01/12 04:52:01;;;;;;;23.02;10.82;;;-1.80;99.40;;;;;;5039665;28;20312;-77
2022/01/12 04:54:27;;;;;;;25.38;11.40;;;-1.70;99.00;;;;;;5038228;28;20574;-78
2022/01/12 04:56:53;;;;;;;20.45;10.07;;;-1.80;99.30;;;;;;5039170;28;20013;-79
2022/01/12 04:59:19;;;;;;;28.40;12.00;;;-1.80;99.10;;;;;;5038940;28;20454;-78
2022/01/12 05:01:52;;;;;;;25.05;10.52;;;-1.80;99.00;;;;;;5038436;28;20047;-77
2022/01/12 05:07:26;;;;;;;24.15;11.65;;;-1.70;98.90;;;;;;5039434;28;20171;-78
2022/01/12 05:12:52;;;;;;;24.48;11.30;;;-1.60;98.70;;;;;;5039449;28;20087;-77
2022/01/12 05:15:26;;;;;;;28.15;12.55;;;-1.50;98.70;;;;;;5039341;28;20265;-78
2022/01/12 05:17:52;;;;;;;28.25;11.80;;;-1.50;98.60;;;;;;5039401;28;20202;-77
2022/01/12 05:20:22;;;;;;;27.13;12.98;;;-1.40;98.60;;;;;;5038352;28;20317;-79
2022/01/12 05:23:10;;;;;;;31.65;13.15;;;-1.50;98.50;;;;;;5045214;28;20032;-79
2022/01/12 05:25:36;;;;;;;25.48;12.02;;;-1.80;98.80;;;;;;5048037;28;20049;-77
2022/01/12 05:28:02;;;;;;;26.63;12.75;;;-1.50;98.70;;;;;;5050716;28;20234;-78
2022/01/12 05:30:28;;;;;;;24.77;12.07;;;-1.50;98.60;;;;;;5047601;28;20484;-78
2022/01/12 05:32:54;;;;;;;28.17;12.38;;;-1.60;98.90;;;;;;5039987;28;20535;-78
2022/01/12 05:35:20;;;;;;;25.45;12.30;;;-1.60;99.80;;;;;;5038277;28;20037;-77
2022/01/12 05:37:46;;;;;;;20.98;10.30;;;-1.60;99.10;;;;;;5039779;28;20013;-78
2022/01/12 05:40:20;;;;;;;20.90;10.57;;;-1.60;99.10;;;;;;5039527;28;20040;-78
2022/01/12 05:42:46;;;;;;;23.90;11.13;;;-1.60;99.20;;;;;;5038399;28;20132;-77
2022/01/12 05:45:12;;;;;;;22.45;10.00;;;-1.80;99.40;;;;;;5038199;28;20194;-78
2022/01/12 05:50:13;;;;;;;22.80;10.15;;;-1.80;99.80;;;;;;5039084;28;20024;-79
2022/01/12 05:52:40;;;;;;;20.00;10.25;;;-1.80;99.80;;;;;;5036925;28;20025;-77
2022/01/12 05:55:08;;;;;;;21.63;10.05;;;-1.80;99.90;;;;;;5037141;28;20040;-78
2022/01/12 05:57:35;;;;;;;20.50;9.60;;;-1.80;99.90;;;;;;5037111;28;20311;-78
2022/01/12 06:00:03;;;;;;;23.92;10.63;;;-1.80;99.90;;;;;;5038412;28;20009;-78
2022/01/12 06:02:29;;;;;;;21.08;10.57;;;-1.80;99.80;;;;;;5036867;28;20048;-78
2022/01/12 06:05:01;;;;;;;36.05;15.38;;;-1.80;99.90;;;;;;5038601;28;20064;-78
2022/01/12 06:07:27;;;;;;;40.95;19.20;;;-1.90;99.90;;;;;;5038945;28;20021;-78
2022/01/12 06:09:52;;;;;;;34.85;17.25;;;-1.80;99.90;;;;;;5037208;28;20021;-77
2022/01/12 06:12:18;;;;;;;25.50;12.02;;;-1.40;99.90;;;;;;5038407;28;20017;-78
2022/01/12 06:14:44;;;;;;;21.88;10.98;;;-1.80;99.90;;;;;;5037000;28;20410;-78
2022/01/12 06:17:11;;;;;;;27.55;12.43;;;-1.80;99.90;;;;;;5038749;28;20025;-78
2022/01/12 06:19:37;;;;;;;22.42;11.07;;;-1.20;99.90;;;;;;5039124;28;20052;-77
2022/01/12 06:22:04;;;;;;;22.70;10.65;;;-1.80;99.90;;;;;;5038807;28;20558;-78
2022/01/12 06:24:30;;;;;;;23.35;11.68;;;-1.80;99.90;;;;;;5038475;28;20534;-78
2022/01/12 06:26:56;;;;;;;25.38;13.13;;;-1.90;99.90;;;;;;5036965;28;20060;-78
2022/01/12 06:29:26;;;;;;;30.05;13.00;;;-1.80;99.90;;;;;;5038587;28;20338;-78
2022/01/12 06:31:55;;;;;;;25.52;11.85;;;-1.70;99.90;;;;;;5039629;28;20022;-78
2022/01/12 06:34:22;;;;;;;26.65;11.52;;;-1.70;99.90;;;;;;5039216;28;20676;-78
2022/01/12 06:36:48;;;;;;;28.38;12.30;;;-1.60;99.80;;;;;;5037390;28;20237;-78
2022/01/12 06:39:17;;;;;;;33.33;13.73;;;-1.60;99.40;;;;;;5038010;28;20025;-77
2022/01/12 06:41:44;;;;;;;26.02;12.48;;;-1.60;99.50;;;;;;5037972;28;20036;-78
2022/01/12 06:44:22;;;;;;;22.42;11.73;;;-1.60;99.60;;;;;;5037996;28;20025;-77
2022/01/12 06:46:49;;;;;;;31.77;13.25;;;-1.70;99.00;;;;;;5036667;28;20140;-77
2022/01/12 06:49:16;;;;;;;32.05;14.15;;;-1.70;99.10;;;;;;5039222;28;20314;-78
2022/01/12 06:51:45;;;;;;;30.90;14.35;;;-1.80;99.30;;;;;;5038622;28;20224;-77
2022/01/12 06:54:13;;;;;;;32.25;12.93;;;-1.80;99.90;;;;;;5044146;28;20021;-77
2022/01/12 06:56:39;;;;;;;25.17;11.07;;;-1.80;99.90;;;;;;5045825;28;20017;-76
2022/01/12 06:59:06;;;;;;;25.90;11.25;;;-1.30;99.30;;;;;;5039681;28;20021;-78
2022/01/12 07:01:33;;;;;;;27.75;13.18;;;-1.80;99.00;;;;;;5038781;28;20371;-77
2022/01/12 07:03:59;;;;;;;26.25;12.55;;;-1.80;99.20;;;;;;5038737;28;20107;-77
2022/01/12 07:06:25;;;;;;;25.90;11.75;;;-1.80;99.30;;;;;;5038127;28;20280;-78
2022/01/12 07:08:52;;;;;;;26.55;13.23;;;-1.80;99.30;;;;;;5037456;28;20025;-78
2022/01/12 07:11:18;;;;;;;26.02;12.63;;;-1.80;99.40;;;;;;5036441;28;20577;-78
2022/01/12 07:13:44;;;;;;;25.77;12.75;;;-1.90;99.50;;;;;;5037627;28;20029;-78
2022/01/12 07:16:11;;;;;;;27.40;13.15;;;-2.00;99.40;;;;;;5037376;28;20385;-78
2022/01/12 07:18:37;;;;;;;30.80;11.90;;;-1.90;99.60;;;;;;5036052;28;20021;-77
2022/01/12 07:21:03;;;;;;;25.73;12.27;;;-1.90;99.50;;;;;;5037343;28;20094;-78
2022/01/12 07:23:29;;;;;;;22.98;11.15;;;-1.90;99.50;;;;;;5037284;28;20037;-78
2022/01/12 07:25:55;;;;;;;27.08;12.30;;;-1.80;99.30;;;;;;5037340;28;20025;-78
2022/01/12 07:28:22;;;;;;;21.30;11.20;;;-1.20;99.60;;;;;;5035777;28;20023;-78
2022/01/12 07:30:51;;;;;;;24.02;11.73;;;-1.70;99.30;;;;;;5037666;28;20203;-78
2022/01/12 07:33:17;;;;;;;25.20;12.57;;;-1.70;98.60;;;;;;5037258;28;20021;-78
2022/01/12 07:35:44;;;;;;;26.52;13.20;;;-1.70;98.30;;;;;;5037909;28;20378;-78
2022/01/12 07:38:10;;;;;;;22.00;11.57;;;-1.70;98.10;;;;;;5037672;28;20025;-78
2022/01/12 07:40:36;;;;;;;25.17;12.18;;;-1.70;98.20;;;;;;5041319;28;20071;-77
2022/01/12 07:43:03;;;;;;;24.65;12.25;;;-1.70;98.00;;;;;;5040904;28;20044;-77
2022/01/12 07:45:29;;;;;;;23.70;11.73;;;-1.70;97.90;;;;;;5041045;28;20407;-78
2022/01/12 07:47:58;;;;;;;24.25;11.75;;;-1.70;97.70;;;;;;5038993;28;20515;-78
2022/01/12 07:50:24;;;;;;;24.67;12.75;;;-1.60;97.80;;;;;;5040711;28;20021;-78
2022/01/12 07:52:53;;;;;;;20.88;11.85;;;-1.50;97.60;;;;;;5040393;28;20370;-77
2022/01/12 07:55:20;;;;;;;28.80;12.60;;;-1.40;97.20;;;;;;5040760;28;20017;-78
2022/01/12 07:57:47;;;;;;;26.98;13.45;;;-1.40;97.30;;;;;;5040692;28;20025;-77
2022/01/12 08:00:13;;;;;;;27.35;13.48;;;-1.40;97.70;;;;;;5039401;28;20519;-77
2022/01/12 08:02:45;;;;;;;26.02;13.25;;;-1.30;97.60;;;;;;5039763;28;20101;-77
2022/01/12 08:05:11;;;;;;;38.90;18.65;;;-1.10;97.40;;;;;;5040060;28;20416;-78
2022/01/12 08:07:38;;;;;;;45.50;21.02;;;-1.10;97.00;;;;;;5040063;28;20025;-78
2022/01/12 08:10:06;;;;;;;29.85;14.70;;;-1.10;97.10;;;;;;5039994;28;20308;-78
2022/01/12 08:12:32;;;;;;;30.00;16.38;;;-1.00;96.00;;;;;;5038467;28;20573;-78
2022/01/12 08:14:58;;;;;;;32.30;16.58;;;-3.40;95.40;;;;;;5040050;28;20044;-77
2022/01/12 08:17:40;;;;;;;;;;;;;;;;;;;;;
2022/01/12 08:20:28;;;;;;;27.48;13.77;;;-0.90;96.10;;;;;;5039859;28;20025;-78
2022/01/12 08:22:56;;;;;;;23.85;10.77;;;-0.70;96.40;;;;;;5019872;28;20048;-77
2022/01/12 08:25:25;;;;;;;21.92;10.63;;;-0.80;95.60;;;;;;5036238;28;20318;-78
2022/01/12 08:28:58;;;;;;;;;;;;;;;;;;;;;
2022/01/12 08:31:21;;;;;;;23.77;11.88;;;0.20;95.20;;;;;;5031611;28;20029;-78
2022/01/12 08:33:50;;;;;;;23.73;11.80;;;-0.40;93.90;;;;;;5036128;28;20392;-78
2022/01/12 08:36:16;;;;;;;20.88;10.82;;;-0.70;93.60;;;;;;5036388;28;20337;-78
2022/01/12 08:38:43;;;;;;;25.33;12.52;;;-0.60;93.70;;;;;;5036050;28;20450;-78
2022/01/12 08:41:08;;;;;;;25.55;11.88;;;-0.50;93.60;;;;;;5036262;28;20514;-77
2022/01/12 08:43:34;;;;;;;24.30;13.20;;;-0.50;93.70;;;;;;5036244;28;20033;-78
2022/01/12 08:46:00;;;;;;;26.30;11.25;;;-0.40;93.50;;;;;;5035985;28;20017;-78
2022/01/12 08:48:26;;;;;;;23.63;11.40;;;-0.40;92.70;;;;;;5035975;28;20385;-78
2022/01/12 08:50:54;;;;;;;25.85;12.00;;;-0.50;92.80;;;;;;5035451;28;20457;-78
2022/01/12 08:53:20;;;;;;;25.38;11.32;;;-0.40;93.10;;;;;;5036426;28;20036;-78
2022/01/12 08:55:48;;;;;;;23.48;11.32;;;-0.40;92.40;;;;;;5036110;28;20379;-77
2022/01/12 08:58:13;;;;;;;28.83;12.98;;;-0.30;92.30;;;;;;5035803;28;20418;-78
2022/01/12 09:00:39;;;;;;;27.02;13.52;;;-0.20;92.30;;;;;;5037966;28;20644;-77
2022/01/12 09:03:05;;;;;;;26.35;13.07;;;0.00;92.30;;;;;;5036918;28;20037;-78
2022/01/12 09:05:31;;;;;;;24.88;12.40;;;-0.10;91.30;;;;;;5039148;28;20037;-78
2022/01/12 09:07:59;;;;;;;23.70;12.38;;;-0.10;92.00;;;;;;5040035;28;20557;-78
2022/01/12 09:10:25;;;;;;;24.10;12.80;;;-0.10;91.80;;;;;;5039668;28;20225;-77
2022/01/12 09:12:54;;;;;;;23.17;11.38;;;-0.10;91.70;;;;;;5039257;28;20032;-78
2022/01/12 09:15:25;;;;;;;17.60;9.80;;;0.00;91.20;;;;;;5038758;28;20019;-78
2022/01/12 09:17:51;;;;;;;21.67;10.73;;;0.00;90.20;;;;;;5039065;28;20093;-78
2022/01/12 09:20:19;;;;;;;22.42;11.43;;;0.20;90.30;;;;;;5037608;28;20025;-77
2022/01/12 09:22:45;;;;;;;18.67;10.32;;;0.20;90.10;;;;;;5038931;28;20021;-78
2022/01/12 09:25:12;;;;;;;20.45;10.70;;;0.00;89.10;;;;;;5036901;28;20037;-78
2022/01/12 09:27:50;;;;;;;22.65;11.55;;;0.10;90.00;;;;;;5037912;28;20036;-79
2022/01/12 09:30:19;;;;;;;24.48;12.32;;;0.10;89.50;;;;;;5041547;28;20032;-79
2022/01/12 09:32:45;;;;;;;23.45;11.65;;;0.20;90.20;;;;;;5042956;28;20045;-78
2022/01/12 09:35:12;;;;;;;22.48;11.32;;;0.10;90.00;;;;;;5042157;28;20127;-78
2022/01/12 09:37:38;;;;;;;23.73;11.73;;;0.20;89.90;;;;;;5042870;28;20444;-76
2022/01/12 09:40:04;;;;;;;18.17;10.07;;;0.00;88.80;;;;;;5040856;28;20055;-78
2022/01/12 09:42:32;;;;;;;17.77;10.05;;;0.00;88.30;;;;;;5039783;28;20044;-78
2022/01/12 09:44:58;;;;;;;23.80;11.07;;;0.20;88.10;;;;;;5039160;28;20217;-76
2022/01/12 09:47:24;;;;;;;18.10;10.02;;;0.20;88.50;;;;;;5038677;28;20028;-77
2022/01/12 09:49:50;;;;;;;20.35;10.65;;;0.10;85.90;;;;;;5038248;28;20427;-78
2022/01/12 09:52:16;;;;;;;19.92;10.23;;;0.00;85.80;;;;;;5038333;28;20191;-77
2022/01/12 09:54:42;;;;;;;19.25;9.90;;;0.00;87.20;;;;;;5036417;28;20553;-78
2022/01/12 09:57:08;;;;;;;19.00;9.65;;;0.10;87.30;;;;;;5038059;28;20028;-78
2022/01/12 09:59:37;;;;;;;16.60;8.77;;;0.30;87.30;;;;;;5037997;28;20526;-77
2022/01/12 10:02:03;;;;;;;19.20;9.02;;;0.10;85.40;;;;;;5037246;28;20199;-78
2022/01/12 10:04:31;;;;;;;22.35;10.00;;;0.30;86.00;;;;;;5036223;28;20037;-77
2022/01/12 10:07:02;;;;;;;18.90;9.82;;;0.40;84.70;;;;;;5036594;28;20225;-76
2022/01/12 10:09:45;;;;;;;15.88;9.30;;;0.10;86.00;;;;;;5038010;28;20333;-77
2022/01/12 10:12:21;;;;;;;17.15;8.45;;;0.10;86.10;;;;;;5036511;28;20479;-77
2022/01/12 10:14:50;;;;;;;81.15;24.38;;;0.00;86.90;;;;;;5036459;28;20025;-77
2022/01/12 10:17:19;;;;;;;19.42;9.23;;;1.00;86.90;;;;;;5036750;28;20037;-77
2022/01/12 10:19:45;;;;;;;20.15;9.60;;;2.80;87.30;;;;;;5038102;28;20029;-77
2022/01/12 10:22:15;;;;;;;18.20;9.07;;;-0.10;85.60;;;;;;5038017;28;20047;-77
2022/01/12 10:24:44;;;;;;;16.30;8.50;;;0.00;85.10;;;;;;5037516;28;20059;-77
2022/01/12 10:27:14;;;;;;;16.33;8.60;;;0.20;85.20;;;;;;5036672;28;20021;-77
2022/01/12 10:29:41;;;;;;;16.85;8.35;;;0.40;83.30;;;;;;5037397;28;20120;-77
2022/01/12 10:32:16;;;;;;;23.10;10.75;;;0.50;82.80;;;;;;5037991;28;20025;-78
2022/01/12 10:34:44;;;;;;;35.60;15.63;;;0.80;83.90;;;;;;5038388;28;20040;-77
2022/01/12 10:37:13;;;;;;;15.75;8.30;;;0.90;83.50;;;;;;5038234;28;20021;-78
2022/01/12 10:39:41;;;;;;;17.00;8.88;;;0.70;79.50;;;;;;5038311;28;20044;-77
2022/01/12 10:42:10;;;;;;;22.60;10.80;;;0.80;80.90;;;;;;5038301;28;20621;-78
2022/01/12 10:44:35;;;;;;;40.08;16.23;;;0.80;81.00;;;;;;5038158;28;20120;-77
2022/01/12 10:47:22;;;;;;;37.55;16.10;;;0.80;82.10;;;;;;5038638;28;20143;-77
2022/01/12 10:50:10;;;;;;;30.45;13.48;;;1.10;81.70;;;;;;5037849;28;20033;-77
2022/01/12 10:52:39;;;;;;;55.53;22.05;;;1.30;80.70;;;;;;5037379;28;20021;-78
2022/01/12 10:55:10;;;;;;;26.98;13.20;;;1.10;78.50;;;;;;5038805;28;20608;-78
2022/01/12 10:57:39;;;;;;;45.45;21.65;;;1.20;79.80;;;;;;5038395;28;20348;-77
2022/01/12 11:00:25;;;;;;;19.95;10.73;;;1.40;79.20;;;;;;5038498;28;20177;-78
2022/01/12 11:02:56;;;;;;;17.63;9.65;;;1.50;77.20;;;;;;5037098;28;20182;-78
2022/01/12 11:05:24;;;;;;;15.98;8.50;;;1.80;76.80;;;;;;5039252;28;20041;-78
2022/01/12 11:07:51;;;;;;;32.08;12.80;;;2.20;74.80;;;;;;5037842;28;20097;-78
2022/01/12 11:10:19;;;;;;;14.88;8.02;;;2.80;73.10;;;;;;5037600;28;20221;-78
2022/01/12 11:12:46;;;;;;;14.77;7.53;;;2.90;69.50;;;;;;5040589;28;20464;-77
2022/01/12 11:15:16;;;;;;;14.65;7.85;;;2.80;69.00;;;;;;5043994;28;20514;-79
2022/01/12 11:17:44;;;;;;;18.17;9.20;;;2.40;68.70;;;;;;5042359;28;20487;-78
2022/01/12 11:20:21;;;;;;;17.98;10.10;;;2.50;67.00;;;;;;5041752;28;20036;-78
2022/01/12 11:23:07;;;;;;;21.13;11.70;;;2.40;71.90;;;;;;5043639;28;20049;-77
2022/01/12 11:25:39;;;;;;;26.75;12.95;;;2.30;74.60;;;;;;5041712;28;20037;-78
2022/01/12 11:28:09;;;;;;;30.98;12.90;;;2.10;76.90;;;;;;5042229;28;20586;-78
2022/01/12 11:30:37;;;;;;;23.23;11.63;;;2.00;76.90;;;;;;5040903;28;20025;-78
2022/01/12 11:33:09;;;;;;;38.83;17.50;;;1.60;76.20;;;;;;5040420;28;20075;-78
2022/01/12 11:35:43;;;;;;;83.22;30.98;;;1.40;81.00;;;;;;5042363;28;20229;-79
2022/01/12 11:38:23;;;;;;;24.85;13.15;;;1.30;83.00;;;;;;5042086;28;20341;-78
2022/01/12 11:40:50;;;;;;;59.17;24.60;;;1.10;80.80;;;;;;5042230;28;20279;-79
2022/01/12 11:43:21;;;;;;;28.45;15.00;;;1.00;82.60;;;;;;5042240;28;20585;-78
2022/01/12 11:46:05;;;;;;;34.08;16.08;;;1.30;81.20;;;;;;5041328;28;20083;-78
2022/01/12 11:48:52;;;;;;;34.63;16.60;;;1.60;79.50;;;;;;5042626;28;20228;-78
2022/01/12 11:51:31;;;;;;;27.85;14.93;;;1.80;76.90;;;;;;5042291;28;20738;-79
2022/01/12 11:54:07;;;;;;;21.48;11.35;;;2.20;75.00;;;;;;5042887;28;20016;-78
2022/01/12 11:56:33;;;;;;;28.45;14.25;;;2.30;73.70;;;;;;5042804;28;20182;-78
2022/01/12 11:59:05;;;;;;;31.55;16.08;;;2.30;74.80;;;;;;5041331;28;20550;-78
2022/01/12 12:01:48;;;;;;;30.17;14.13;;;2.30;75.20;;;;;;5041957;28;20025;-78
2022/01/12 12:04:30;;;;;;;28.33;14.13;;;2.40;74.10;;;;;;5042815;28;20044;-78
2022/01/12 12:07:13;;;;;;;31.75;16.23;;;2.30;73.90;;;;;;5042784;28;20028;-77
2022/01/12 12:09:57;;;;;;;28.73;14.23;;;2.40;74.30;;;;;;5043766;28;20033;-78
2022/01/12 12:12:33;;;;;;;31.60;16.02;;;2.40;74.00;;;;;;5048391;28;20024;-78
2022/01/12 12:15:06;;;;;;;31.52;16.33;;;2.30;75.50;;;;;;5048803;28;20025;-78
2022/01/12 12:17:35;;;;;;;33.72;17.38;;;2.20;75.70;;;;;;5045627;28;20021;-78
2022/01/12 12:20:02;;;;;;;33.45;17.10;;;2.30;75.60;;;;;;5043832;28;20025;-78
2022/01/12 12:22:32;;;;;;;30.17;14.35;;;2.30;76.60;;;;;;5042445;28;20108;-78
2022/01/12 12:24:59;;;;;;;28.08;14.50;;;2.40;74.40;;;;;;5039183;28;20221;-78
2022/01/12 12:27:27;;;;;;;24.27;12.57;;;2.30;74.10;;;;;;5042462;28;20147;-78
2022/01/12 12:29:53;;;;;;;22.20;12.30;;;2.20;72.50;;;;;;5041063;28;20029;-78
2022/01/12 12:32:21;;;;;;;25.92;13.25;;;2.20;73.70;;;;;;5044756;28;20340;-78
2022/01/12 12:35:00;;;;;;;27.75;14.55;;;2.10;74.30;;;;;;5044724;28;20039;-79
2022/01/12 12:37:38;;;;;;;29.33;15.35;;;2.10;74.70;;;;;;5046847;28;20096;-78
2022/01/12 12:40:44;;;;;;;22.15;12.32;;;2.10;75.10;;;;;;5048000;28;20162;-78
2022/01/12 12:43:22;;;;;;;21.40;11.40;;;2.00;73.90;;;;;;5045225;28;20566;-78
2022/01/12 12:45:52;;;;;;;26.45;12.55;;;2.10;72.90;;;;;;5043897;28;20487;-78
2022/01/12 12:48:20;;;;;;;32.85;14.40;;;2.00;74.00;;;;;;5038665;28;20079;-78
2022/01/12 12:50:47;;;;;;;24.42;12.88;;;1.90;74.70;;;;;;5038259;28;20033;-78
2022/01/12 12:53:16;;;;;;;28.33;14.52;;;1.90;73.50;;;;;;5038206;28;20580;-78
2022/01/12 12:55:44;;;;;;;153.63;38.50;;;2.60;74.50;;;;;;5037779;28;20071;-77
2022/01/12 12:58:13;;;;;;;126.38;33.28;;;1.90;69.90;;;;;;5037874;28;20347;-78
2022/01/12 13:00:39;;;;;;;140.30;36.30;;;1.80;70.40;;;;;;5038165;28;20113;-78
2022/01/12 13:03:05;;;;;;;179.40;43.20;;;1.60;68.60;;;;;;5037827;28;20124;-78
2022/01/12 13:05:41;;;;;;;117.72;31.83;;;1.40;69.30;;;;;;5037733;28;20553;-78
2022/01/12 13:08:07;;;;;;;95.13;27.40;;;1.20;71.40;;;;;;5019664;28;20348;-78
2022/01/12 13:10:33;;;;;;;98.07;32.83;;;1.10;71.20;;;;;;5036738;28;20436;-78
2022/01/12 13:13:01;;;;;;;58.40;25.70;;;1.10;71.50;;;;;;5036242;28;20346;-78
2022/01/12 13:15:30;;;;;;;44.65;18.50;;;1.20;71.60;;;;;;5019859;28;20033;-78
2022/01/12 13:18:02;;;;;;;34.67;15.63;;;1.20;69.80;;;;;;5036889;28;20029;-79
2022/01/12 13:23:15;;;;;;;43.80;20.00;;;1.00;70.40;;;;;;5039588;28;20550;-78
2022/01/12 13:25:41;;;;;;;30.67;15.18;;;1.10;71.20;;;;;;5039825;28;20135;-78
2022/01/12 13:28:07;;;;;;;18.10;9.60;;;1.20;71.50;;;;;;5037939;28;20037;-78
2022/01/12 13:30:34;;;;;;;28.73;14.13;;;1.40;68.60;;;;;;5039461;28;20074;-77
2022/01/12 13:33:01;;;;;;;19.95;10.60;;;1.40;68.90;;;;;;5037857;28;20086;-77
2022/01/12 13:35:35;;;;;;;18.10;9.18;;;1.60;67.30;;;;;;5037311;28;20035;-77
2022/01/12 13:38:05;;;;;;;16.05;9.10;;;1.60;68.30;;;;;;5039160;28;20035;-78
2022/01/12 13:40:36;;;;;;;39.17;16.55;;;1.60;67.30;;;;;;5039063;28;20380;-77
2022/01/12 13:43:03;;;;;;;28.77;12.95;;;1.70;66.80;;;;;;5039454;28;20024;-78
2022/01/12 13:45:40;;;;;;;20.00;9.38;;;1.70;66.00;;;;;;5039509;28;20036;-77
2022/01/12 13:48:18;;;;;;;24.75;11.38;;;1.70;66.00;;;;;;5038238;28;20228;-78
2022/01/12 13:50:53;;;;;;;14.57;7.72;;;1.80;66.10;;;;;;5037661;28;20233;-78
2022/01/12 13:53:31;;;;;;;14.88;8.00;;;1.90;63.90;;;;;;5038980;28;20519;-77
2022/01/12 13:55:57;;;;;;;20.67;10.30;;;1.90;62.80;;;;;;5038487;28;20025;-77
2022/01/12 13:58:28;;;;;;;14.98;8.07;;;1.80;63.00;;;;;;5036664;28;20339;-77
2022/01/12 14:01:02;;;;;;;18.92;11.52;;;1.80;64.00;;;;;;5038855;28;20104;-78
2022/01/12 14:03:28;;;;;;;16.00;8.85;;;1.90;64.10;;;;;;5038100;28;20039;-77
2022/01/12 14:05:59;;;;;;;13.73;7.35;;;1.90;64.10;;;;;;5039023;28;20131;-77